Time;durP1;ratioP1;P1;durP2;ratioP2;P2;SDS_P1;SDS_P2;PMS_P1;PMS_P2;Temp;Humidity;BMP_temperature;BMP_pressure;BME280_temperature;BME280_humidity;BME280_pressure;Samples;Min_cycle;Max_cycle;Signal;HPM_P1;HPM_P2
2023/01/06 00:00:19;;;;;;;0.00;0.00;;;;;;;8.73;76.25;100151.09;7362203;19;20006;-58
2023/01/06 00:02:46;;;;;;;0.00;0.00;;;;;;;8.72;76.35;100146.81;7360011;19;20393;-57
2023/01/06 00:05:13;;;;;;;0.10;0.10;;;;;;;8.62;76.03;100151.38;7359666;19;20041;-57
2023/01/06 00:07:43;;;;;;;0.00;0.00;;;;;;;8.74;76.16;100145.00;7361850;19;20061;-57
2023/01/06 00:10:09;;;;;;;0.10;0.10;;;;;;;8.75;75.96;100144.97;7359454;19;20022;-58
2023/01/06 00:12:35;;;;;;;0.03;0.03;;;;;;;8.77;76.18;100139.75;7354688;19;20018;-58
2023/01/06 00:15:00;;;;;;;0.00;0.00;;;;;;;8.76;76.22;100138.00;7361994;19;20021;-58
2023/01/06 00:17:26;;;;;;;0.10;0.10;;;;;;;8.77;75.72;100140.59;7359184;19;20021;-58
2023/01/06 00:19:51;;;;;;;0.05;0.05;;;;;;;8.78;76.03;100147.50;7358433;19;20022;-58
2023/01/06 00:22:17;;;;;;;0.00;0.00;;;;;;;8.79;75.47;100145.75;7354800;19;20018;-57
2023/01/06 00:24:43;;;;;;;0.00;0.00;;;;;;;8.77;75.59;100155.34;7357450;19;20029;-57
2023/01/06 00:27:08;;;;;;;0.10;0.10;;;;;;;8.78;75.39;100138.84;7357604;19;20093;-57
2023/01/06 00:29:34;;;;;;;0.10;0.10;;;;;;;8.79;75.69;100145.75;7357135;19;20122;-58
2023/01/06 00:32:00;;;;;;;0.00;0.00;;;;;;;8.80;76.01;100160.47;7359784;19;20347;-58
2023/01/06 00:34:26;;;;;;;0.00;0.00;;;;;;;8.77;76.11;100155.34;7361234;19;20034;-58
2023/01/06 00:36:51;;;;;;;0.10;0.10;;;;;;;8.80;75.97;100157.88;7359072;19;20015;-58
2023/01/06 00:39:16;;;;;;;0.00;0.00;;;;;;;8.84;75.69;100151.69;7356046;19;20014;-58
2023/01/06 00:44:26;;;;;;;0.00;0.00;;;;;;;8.84;75.57;100152.56;7359555;19;20479;-57
2023/01/06 00:46:51;;;;;;;0.10;0.10;;;;;;;8.79;74.96;100132.72;7358009;19;21267;-57
2023/01/06 00:49:17;;;;;;;0.00;0.00;;;;;;;8.82;75.24;100143.09;7357652;19;20048;-57
2023/01/06 00:51:42;;;;;;;0.10;0.10;;;;;;;8.82;75.36;100137.88;7359635;19;20086;-58
2023/01/06 00:54:09;;;;;;;0.00;0.00;;;;;;;8.79;74.98;100130.97;7355422;19;20041;-57
2023/01/06 00:56:39;;;;;;;0.00;0.00;;;;;;;8.79;75.26;100137.94;7357820;19;20018;-54
2023/01/06 00:59:05;;;;;;;0.10;0.10;;;;;;;8.75;75.03;100125.88;7354007;19;20412;-58
2023/01/06 01:01:32;;;;;;;0.00;0.00;;;;;;;8.69;75.09;100131.25;7364573;19;20156;-58
2023/01/06 01:03:58;;;;;;;0.00;0.00;;;;;;;8.66;74.95;100128.69;7363497;19;20372;-57
2023/01/06 01:06:23;;;;;;;0.00;0.00;;;;;;;8.68;74.96;100155.56;7362583;19;20015;-57
2023/01/06 01:08:56;;;;;;;0.00;0.00;;;;;;;8.67;74.56;100144.31;7363987;19;20097;-58
2023/01/06 01:14:06;;;;;;;0.00;0.00;;;;;;;8.59;75.13;100133.22;7365360;19;20117;-57
2023/01/06 01:16:32;;;;;;;0.10;0.10;;;;;;;8.57;75.39;100138.47;7363484;19;23675;-57
2023/01/06 01:18:58;;;;;;;0.10;0.10;;;;;;;8.56;75.19;100147.13;7360313;19;20018;-58
2023/01/06 01:21:23;;;;;;;0.10;0.10;;;;;;;8.51;74.91;100148.97;7364370;19;20075;-58
2023/01/06 01:23:48;;;;;;;0.00;0.00;;;;;;;8.51;74.86;100154.19;7359774;19;20018;-58
2023/01/06 01:26:14;;;;;;;0.00;0.00;;;;;;;8.47;75.10;100162.13;7363590;19;20052;-58
2023/01/06 01:28:40;;;;;;;0.00;0.00;;;;;;;8.45;75.31;100149.13;7361751;19;20339;-58
2023/01/06 01:31:05;;;;;;;0.00;0.00;;;;;;;8.45;75.24;100161.28;7361750;19;20668;-57
2023/01/06 01:33:31;;;;;;;0.00;0.00;;;;;;;8.44;75.08;100151.78;7360670;19;20010;-57
2023/01/06 01:35:57;;;;;;;0.00;0.00;;;;;;;8.42;74.84;100157.03;7365850;19;20015;-58
2023/01/06 01:38:24;;;;;;;0.00;0.00;;;;;;;8.30;74.90;100129.47;7360198;19;20101;-58
2023/01/06 01:40:50;;;;;;;0.00;0.00;;;;;;;8.40;75.35;100161.38;7363501;19;20613;-58
2023/01/06 01:43:16;;;;;;;0.00;0.00;;;;;;;8.39;75.08;100154.47;7359569;19;20094;-58
2023/01/06 01:45:45;;;;;;;0.08;0.08;;;;;;;8.31;74.77;100157.25;7360546;19;20074;-57
2023/01/06 01:48:19;;;;;;;0.10;0.10;;;;;;;8.37;74.91;100161.47;7361503;19;20030;-57
2023/01/06 01:50:50;;;;;;;0.00;0.00;;;;;;;8.37;74.82;100158.03;7361386;19;20359;-57
2023/01/06 01:53:23;;;;;;;0.00;0.00;;;;;;;8.24;74.79;100144.38;7358417;19;20031;-56
2023/01/06 01:55:52;;;;;;;0.03;0.03;;;;;;;8.31;75.25;100154.63;7361087;19;20050;-58
2023/01/06 01:58:27;;;;;;;0.00;0.00;;;;;;;8.31;75.35;100156.34;7360477;19;20018;-58
2023/01/06 02:00:52;;;;;;;0.10;0.10;;;;;;;8.23;75.07;100147.88;7362368;19;20580;-57
2023/01/06 02:03:20;;;;;;;0.10;0.10;;;;;;;8.28;74.88;100172.03;7358460;19;20018;-58
2023/01/06 02:05:51;;;;;;;0.00;0.00;;;;;;;8.26;75.23;100173.81;7360323;19;20014;-58
2023/01/06 02:08:43;;;;;;;0.10;0.10;;;;;;;8.27;74.81;100167.75;7361333;19;20014;-58
2023/01/06 02:11:09;;;;;;;0.00;0.00;;;;;;;8.22;74.86;100167.84;7360151;19;20022;-58
2023/01/06 02:13:37;;;;;;;0.10;0.10;;;;;;;8.22;75.14;100164.38;7360493;19;20018;-57
2023/01/06 02:16:26;;;;;;;0.00;0.00;;;;;;;8.22;75.12;100159.19;7361142;19;20011;-58
2023/01/06 02:19:25;;;;;;;0.10;0.10;;;;;;;8.20;75.14;100164.41;7359258;19;20336;-58
2023/01/06 02:21:51;;;;;;;0.00;0.00;;;;;;;8.17;75.16;100159.28;7260702;19;2004157;-58
2023/01/06 02:25:07;;;;;;;0.00;0.00;;;;;;;8.19;74.96;100167.03;7357987;19;20074;-57
2023/01/06 02:27:57;;;;;;;0.00;0.00;;;;;;;8.16;75.19;100159.28;7155996;19;2004236;-58
2023/01/06 02:30:26;;;;;;;0.00;0.00;;;;;;;8.14;74.87;100164.53;7360831;19;20122;-57
2023/01/06 02:33:18;;;;;;;0.00;0.00;;;;;;;8.13;75.01;100164.56;7361368;19;20011;-58
2023/01/06 02:35:49;;;;;;;0.00;0.00;;;;;;;8.11;74.65;100189.72;7360609;19;20021;-58
2023/01/06 02:38:50;;;;;;;0.00;0.00;;;;;;;8.13;75.18;100182.78;7362546;19;20534;-56
2023/01/06 02:42:01;;;;;;;0.00;0.00;;;;;;;8.12;74.87;100171.53;7253582;19;2004996;-58
2023/01/06 02:44:31;;;;;;;0.00;0.00;;;;;;;8.10;74.51;100182.84;7258456;19;2004178;-57
2023/01/06 02:47:31;;;;;;;0.10;0.10;;;;;;;8.10;74.87;100188.03;7360336;19;20514;-58
2023/01/06 02:50:10;;;;;;;0.10;0.10;;;;;;;8.09;74.56;100194.13;7257324;19;2005004;-58
2023/01/06 02:52:44;;;;;;;0.00;0.00;;;;;;;8.09;74.31;100212.31;7355918;19;20042;-57
2023/01/06 02:55:22;;;;;;;0.00;0.00;;;;;;;8.03;74.36;100198.56;7361392;19;20010;-57
2023/01/06 02:58:11;;;;;;;0.10;0.10;;;;;;;8.04;74.45;100200.28;7347287;19;20822;-57
2023/01/06 03:00:42;;;;;;;0.00;0.00;;;;;;;8.03;74.23;100208.97;7356912;19;20021;-58
2023/01/06 03:03:16;;;;;;;0.08;0.08;;;;;;;8.02;74.63;100222.00;7357833;19;20657;-57
2023/01/06 03:05:47;;;;;;;0.05;0.05;;;;;;;8.01;74.45;100221.16;7358058;19;20010;-58
2023/01/06 03:08:17;;;;;;;0.03;0.03;;;;;;;8.00;74.35;100237.63;7359824;19;20086;-57
2023/01/06 03:10:45;;;;;;;0.08;0.08;;;;;;;8.00;74.18;100224.63;7360466;19;20018;-58
2023/01/06 03:13:22;;;;;;;;;;;;;;;8.01;74.43;100236.75;7355539;19;20024;-58
2023/01/06 03:15:48;;;;;;;0.00;0.00;;;;;;;7.99;73.77;100245.47;7361916;19;19939;-58
2023/01/06 03:18:13;;;;;;;0.10;0.10;;;;;;;7.97;74.14;100240.28;7356267;19;20010;-57
2023/01/06 03:20:39;;;;;;;0.05;0.05;;;;;;;7.96;74.24;100248.13;7357337;19;20002;-58
2023/01/06 03:23:05;;;;;;;0.00;0.00;;;;;;;7.94;74.39;100250.75;7355931;19;20049;-58
2023/01/06 03:25:30;;;;;;;0.05;0.05;;;;;;;7.92;74.11;100242.13;7360515;19;20010;-57
2023/01/06 03:27:55;;;;;;;0.00;0.00;;;;;;;7.92;74.61;100239.53;7345059;19;20022;-58
2023/01/06 03:30:25;;;;;;;0.00;0.00;;;;;;;7.84;74.56;100233.59;7359808;19;20018;-57
2023/01/06 03:33:09;;;;;;;0.00;0.00;;;;;;;7.93;74.61;100249.03;7354230;19;20022;-58
2023/01/06 03:35:51;;;;;;;0.00;0.00;;;;;;;7.90;74.57;100238.69;7359733;19;20918;-57
2023/01/06 03:38:19;;;;;;;0.00;0.00;;;;;;;7.88;74.33;100240.47;7356377;19;20006;-58
2023/01/06 03:40:58;;;;;;;0.00;0.00;;;;;;;7.89;74.56;100231.78;7355980;19;20003;-58
2023/01/06 03:43:38;;;;;;;0.00;0.00;;;;;;;7.88;74.34;100234.41;7357068;19;20757;-58
2023/01/06 03:46:34;;;;;;;0.00;0.00;;;;;;;7.86;74.43;100252.66;7356457;19;20014;-56
2023/01/06 03:49:27;;;;;;;0.00;0.00;;;;;;;7.85;74.67;100240.50;7252781;19;2004327;-58
2023/01/06 03:52:17;;;;;;;0.05;0.05;;;;;;;7.83;74.60;100237.09;7358615;19;20852;-57
2023/01/06 03:55:03;;;;;;;0.10;0.10;;;;;;;7.82;74.62;100238.00;7354985;19;20014;-57
2023/01/06 03:57:34;;;;;;;0.10;0.10;;;;;;;7.71;74.38;100213.94;7358000;19;20547;-58
2023/01/06 04:00:05;;;;;;;0.00;0.00;;;;;;;7.78;74.21;100233.72;7356293;19;20011;-57
2023/01/06 04:02:32;;;;;;;0.00;0.00;;;;;;;7.71;74.22;100226.94;7355255;19;20042;-58
2023/01/06 04:05:07;;;;;;;0.05;0.05;;;;;;;7.77;74.25;100232.03;7339077;19;21467;-58
2023/01/06 04:07:32;;;;;;;0.05;0.05;;;;;;;7.76;74.38;100235.50;7355924;19;20019;-57
2023/01/06 04:09:58;;;;;;;0.05;0.05;;;;;;;7.76;74.43;100245.91;7356139;19;20054;-58
2023/01/06 04:12:38;;;;;;;0.00;0.00;;;;;;;7.75;74.58;100252.81;7360185;19;20699;-58
2023/01/06 04:15:09;;;;;;;0.00;0.00;;;;;;;7.73;74.37;100252.00;7355508;19;20083;-58
2023/01/06 04:17:35;;;;;;;0.08;0.08;;;;;;;7.73;74.28;100258.94;7359330;19;20029;-57
2023/01/06 04:20:01;;;;;;;0.00;0.00;;;;;;;7.74;73.97;100252.84;7358390;19;20003;-57
2023/01/06 04:22:27;;;;;;;0.00;0.00;;;;;;;7.73;74.13;100256.34;7340605;19;20044;-57
2023/01/06 04:24:52;;;;;;;0.00;0.00;;;;;;;7.72;74.21;100252.03;7353501;19;21432;-58
2023/01/06 04:27:18;;;;;;;0.00;0.00;;;;;;;7.71;74.14;100260.72;7354904;19;20102;-57
2023/01/06 04:29:43;;;;;;;0.10;0.10;;;;;;;7.70;73.99;100251.19;7359144;19;20010;-58
2023/01/06 04:32:08;;;;;;;0.10;0.10;;;;;;;7.68;73.80;100252.97;7354129;19;20869;-58
2023/01/06 04:34:34;;;;;;;0.00;0.00;;;;;;;7.69;73.74;100259.88;7360411;19;20806;-58
2023/01/06 04:36:59;;;;;;;0.00;0.00;;;;;;;7.68;73.89;100265.97;7363646;19;21266;-58
2023/01/06 04:39:25;;;;;;;0.00;0.00;;;;;;;7.67;73.67;100262.50;7365708;19;20018;-58
2023/01/06 04:41:50;;;;;;;0.00;0.00;;;;;;;7.50;73.71;100242.03;7363655;19;20026;-58
2023/01/06 04:44:15;;;;;;;0.00;0.00;;;;;;;7.65;73.87;100276.41;7365036;19;20010;-58
2023/01/06 04:46:41;;;;;;;0.00;0.00;;;;;;;7.64;73.58;100272.94;7360054;19;20003;-58
2023/01/06 04:49:06;;;;;;;0.10;0.10;;;;;;;7.63;73.68;100249.59;7364631;19;20011;-59
2023/01/06 04:51:32;;;;;;;0.10;0.10;;;;;;;7.60;73.64;100263.50;7363506;19;20009;-58
2023/01/06 04:53:57;;;;;;;0.00;0.00;;;;;;;7.60;73.77;100265.22;7364823;19;20015;-58
2023/01/06 04:56:23;;;;;;;0.10;0.10;;;;;;;7.58;73.47;100272.22;7363003;19;20021;-57
2023/01/06 04:58:54;;;;;;;0.10;0.10;;;;;;;7.58;73.40;100272.22;7364291;19;20348;-58
2023/01/06 05:01:19;;;;;;;0.10;0.10;;;;;;;7.52;73.56;100253.25;7363648;19;20015;-57
2023/01/06 05:03:45;;;;;;;0.00;0.00;;;;;;;7.52;73.77;100248.03;7361408;19;20061;-58
2023/01/06 05:06:11;;;;;;;0.10;0.10;;;;;;;7.51;73.88;100248.94;7361975;19;20033;-58
2023/01/06 05:08:39;;;;;;;0.10;0.10;;;;;;;7.49;73.70;100248.09;7361461;19;20014;-58
2023/01/06 05:11:09;;;;;;;0.00;0.00;;;;;;;7.50;73.79;100249.84;7365222;19;20027;-56
2023/01/06 05:13:34;;;;;;;0.00;0.00;;;;;;;7.46;74.06;100255.94;7358926;19;20481;-58
2023/01/06 05:16:04;;;;;;;0.00;0.00;;;;;;;7.45;73.71;100254.25;7364668;19;20014;-58
2023/01/06 05:18:29;;;;;;;0.03;0.03;;;;;;;7.45;73.86;100262.03;7358058;19;20431;-57
2023/01/06 05:20:55;;;;;;;0.00;0.00;;;;;;;7.42;73.60;100256.88;7364653;19;20588;-57
2023/01/06 05:23:21;;;;;;;0.00;0.00;;;;;;;7.42;74.09;100256.03;7360906;19;20018;-58
2023/01/06 05:25:49;;;;;;;0.10;0.10;;;;;;;7.41;73.49;100254.31;7358323;19;20023;-57
2023/01/06 05:28:14;;;;;;;0.00;0.00;;;;;;;7.40;73.90;100247.38;7362262;19;20026;-58
2023/01/06 05:30:40;;;;;;;0.00;0.00;;;;;;;7.38;73.83;100244.81;7362058;19;20011;-57
2023/01/06 05:33:06;;;;;;;0.00;0.00;;;;;;;7.34;73.97;100243.16;7356258;19;20019;-58
2023/01/06 05:35:31;;;;;;;0.00;0.00;;;;;;;7.35;73.85;100249.22;7363641;19;20023;-57
2023/01/06 05:37:56;;;;;;;0.00;0.00;;;;;;;7.34;74.10;100252.69;7363235;19;20109;-56
2023/01/06 05:40:22;;;;;;;0.10;0.10;;;;;;;7.28;74.27;100243.25;7362618;19;20003;-59
2023/01/06 05:42:48;;;;;;;0.10;0.10;;;;;;;7.33;74.25;100251.84;7360568;19;20011;-57
2023/01/06 05:45:13;;;;;;;0.00;0.00;;;;;;;7.30;74.54;100257.09;7358083;19;20034;-56
2023/01/06 05:47:39;;;;;;;0.10;0.10;;;;;;;7.31;74.57;100253.63;7361207;19;20010;-56
2023/01/06 05:50:04;;;;;;;0.00;0.00;;;;;;;7.32;74.28;100264.84;7363955;19;20440;-58
2023/01/06 05:52:30;;;;;;;0.00;0.00;;;;;;;7.32;74.58;100260.53;7360228;19;20014;-58
2023/01/06 05:54:55;;;;;;;0.00;0.00;;;;;;;7.24;74.56;100249.38;7364611;19;20014;-58
2023/01/06 05:57:21;;;;;;;0.10;0.10;;;;;;;7.35;74.50;100270.88;7361702;19;20010;-55
2023/01/06 05:59:46;;;;;;;0.10;0.10;;;;;;;7.37;74.22;100263.03;7360527;19;20624;-57
2023/01/06 06:02:11;;;;;;;0.00;0.00;;;;;;;7.37;74.55;100269.09;7359119;19;20060;-57
2023/01/06 06:04:37;;;;;;;0.00;0.00;;;;;;;7.37;74.77;100268.25;7360171;19;20018;-58
2023/01/06 06:07:02;;;;;;;0.00;0.00;;;;;;;7.37;74.52;100269.09;7359297;19;20010;-57
2023/01/06 06:09:28;;;;;;;0.00;0.00;;;;;;;7.38;74.49;100273.41;7362252;19;20014;-58
2023/01/06 06:11:54;;;;;;;0.00;0.00;;;;;;;7.38;74.47;100259.56;7361950;19;20011;-57
2023/01/06 06:14:19;;;;;;;0.03;0.03;;;;;;;7.38;74.84;100260.41;7360811;19;20011;-56
2023/01/06 06:16:44;;;;;;;0.10;0.10;;;;;;;7.39;74.29;100266.47;7359430;19;20018;-58
2023/01/06 06:19:11;;;;;;;0.10;0.10;;;;;;;7.22;74.48;100233.84;7361091;19;20650;-58
2023/01/06 06:21:36;;;;;;;0.00;0.00;;;;;;;7.37;74.56;100263.91;7361901;19;20052;-57
2023/01/06 06:24:02;;;;;;;0.10;0.10;;;;;;;7.38;74.63;100250.03;7361532;19;20010;-57
2023/01/06 06:26:28;;;;;;;0.00;0.00;;;;;;;7.36;74.86;100257.00;7361734;19;20014;-57
2023/01/06 06:28:53;;;;;;;0.00;0.00;;;;;;;7.38;74.96;100270.81;7359654;19;20046;-58
2023/01/06 06:31:24;;;;;;;0.08;0.08;;;;;;;7.38;74.93;100270.81;7362284;19;20010;-58
2023/01/06 06:33:51;;;;;;;0.10;0.10;;;;;;;7.37;74.80;100258.69;7358652;19;20039;-57
2023/01/06 06:36:17;;;;;;;0.10;0.10;;;;;;;7.38;74.64;100260.41;7352505;19;20054;-58
2023/01/06 06:38:44;;;;;;;0.08;0.08;;;;;;;7.40;74.96;100263.84;7364721;19;20507;-58
2023/01/06 06:41:09;;;;;;;0.00;0.00;;;;;;;7.40;75.14;100256.06;7361717;19;20006;-58
2023/01/06 06:43:35;;;;;;;0.00;0.00;;;;;;;7.37;74.86;100256.09;7357500;19;20017;-58
2023/01/06 06:46:01;;;;;;;0.00;0.00;;;;;;;7.42;75.22;100256.88;7359497;19;20787;-58
2023/01/06 06:48:29;;;;;;;0.10;0.10;;;;;;;7.45;74.83;100261.16;7359832;19;20014;-58
2023/01/06 06:50:59;;;;;;;0.00;0.00;;;;;;;7.47;75.30;100265.47;7358317;19;20030;-57
2023/01/06 06:53:25;;;;;;;0.00;0.00;;;;;;;7.41;75.05;100260.38;7360874;19;20740;-58
2023/01/06 06:55:51;;;;;;;0.10;0.10;;;;;;;7.49;74.92;100268.88;7362406;19;20010;-58
2023/01/06 06:58:17;;;;;;;0.00;0.00;;;;;;;7.51;75.38;100274.06;7349883;19;20026;-58
2023/01/06 07:00:42;;;;;;;0.00;0.00;;;;;;;7.53;75.06;100280.09;7360737;19;20014;-58
2023/01/06 07:03:07;;;;;;;0.10;0.10;;;;;;;7.55;74.91;100278.31;7360641;19;20447;-58
2023/01/06 07:05:33;;;;;;;0.00;0.00;;;;;;;7.58;75.00;100282.59;7353155;19;20018;-58
2023/01/06 07:07:58;;;;;;;0.10;0.10;;;;;;;7.59;75.50;100273.91;7362728;19;20014;-58
2023/01/06 07:10:24;;;;;;;0.03;0.03;;;;;;;7.60;74.98;100270.44;7358598;19;20007;-56
2023/01/06 07:12:49;;;;;;;0.00;0.00;;;;;;;7.62;75.22;100269.53;7356506;19;20010;-58
2023/01/06 07:15:15;;;;;;;0.00;0.00;;;;;;;7.65;75.13;100268.59;7359594;19;20026;-57
2023/01/06 07:17:40;;;;;;;0.00;0.00;;;;;;;7.65;75.00;100268.59;7359015;19;20071;-58
2023/01/06 07:20:07;;;;;;;0.00;0.00;;;;;;;7.65;75.37;100269.47;7359337;19;20078;-58
2023/01/06 07:22:36;;;;;;;0.00;0.00;;;;;;;7.69;75.41;100276.31;7360120;19;20015;-58
2023/01/06 07:25:02;;;;;;;0.10;0.10;;;;;;;7.70;75.01;100284.97;7357905;19;20026;-57
2023/01/06 07:27:27;;;;;;;0.00;0.00;;;;;;;7.70;74.98;100267.63;7358361;19;23155;-57
2023/01/06 07:29:52;;;;;;;0.00;0.00;;;;;;;7.72;75.45;100254.63;7358566;19;20032;-58
2023/01/06 07:32:18;;;;;;;0.10;0.10;;;;;;;7.73;75.43;100251.16;7358954;19;20458;-58
2023/01/06 07:34:43;;;;;;;0.00;0.00;;;;;;;7.76;75.32;100256.31;7358386;19;20007;-57
2023/01/06 07:37:09;;;;;;;0.03;0.03;;;;;;;7.76;75.58;100262.34;7361178;19;20332;-58
2023/01/06 07:39:34;;;;;;;0.00;0.00;;;;;;;7.79;75.31;100261.44;7359604;19;20015;-58
2023/01/06 07:41:59;;;;;;;0.10;0.10;;;;;;;7.84;75.71;100269.13;7361568;19;20010;-58
2023/01/06 07:44:25;;;;;;;0.00;0.00;;;;;;;7.86;75.45;100267.38;7357781;19;20011;-58
2023/01/06 07:46:50;;;;;;;0.10;0.10;;;;;;;7.88;75.19;100270.81;7353921;19;20014;-57
2023/01/06 07:49:16;;;;;;;0.10;0.10;;;;;;;7.90;75.37;100262.06;7354344;19;20066;-56
2023/01/06 07:51:41;;;;;;;0.10;0.10;;;;;;;7.92;75.16;100270.72;7352755;19;20018;-58
2023/01/06 07:54:06;;;;;;;0.00;0.00;;;;;;;7.95;75.09;100268.03;7352096;19;20018;-57
2023/01/06 07:56:32;;;;;;;0.00;0.00;;;;;;;7.97;75.00;100270.63;7358013;19;20047;-58
2023/01/06 07:58:57;;;;;;;0.00;0.00;;;;;;;7.97;74.85;100263.69;7358196;19;20353;-57
2023/01/06 08:01:23;;;;;;;0.10;0.10;;;;;;;7.98;75.19;100262.81;7359115;19;20034;-58
2023/01/06 08:03:48;;;;;;;0.00;0.00;;;;;;;7.98;74.84;100262.81;7357771;19;20017;-57
2023/01/06 08:06:14;;;;;;;0.10;0.10;;;;;;;8.01;74.62;100277.50;7355688;19;20082;-58
2023/01/06 08:08:40;;;;;;;0.00;0.00;;;;;;;8.01;75.22;100267.97;7355430;19;20030;-55
2023/01/06 08:11:08;;;;;;;0.10;0.10;;;;;;;8.03;75.09;100275.72;7354382;19;20010;-57
2023/01/06 08:13:35;;;;;;;0.10;0.10;;;;;;;7.99;74.85;100264.50;7354712;19;20002;-58
2023/01/06 08:16:05;;;;;;;0.10;0.10;;;;;;;8.02;74.64;100254.06;7358909;19;20022;-58
2023/01/06 08:18:30;;;;;;;0.00;0.00;;;;;;;8.03;74.90;100260.13;7342687;19;20014;-58
2023/01/06 08:21:07;;;;;;;0.00;0.00;;;;;;;8.03;74.95;100250.56;7363083;19;22133;-58
2023/01/06 08:23:34;;;;;;;0.10;0.10;;;;;;;8.05;74.89;100243.59;7361432;19;20013;-58
2023/01/06 08:26:07;;;;;;;0.10;0.10;;;;;;;8.06;74.97;100237.53;7362171;19;20025;-57
2023/01/06 08:28:33;;;;;;;0.00;0.00;;;;;;;8.05;74.55;100240.97;7356561;19;20018;-58
2023/01/06 08:30:59;;;;;;;0.00;0.00;;;;;;;8.04;74.95;100241.03;7357031;19;20019;-58
2023/01/06 08:33:25;;;;;;;0.00;0.00;;;;;;;8.05;74.61;100246.19;7355683;19;20041;-57
2023/01/06 08:35:57;;;;;;;0.10;0.10;;;;;;;8.03;74.82;100240.16;7359718;19;20031;-58
2023/01/06 08:38:22;;;;;;;0.00;0.00;;;;;;;8.03;75.12;100242.75;7360164;19;20022;-58
2023/01/06 08:40:50;;;;;;;0.00;0.00;;;;;;;8.03;74.80;100244.50;7359501;19;22385;-57
2023/01/06 08:43:15;;;;;;;;;;;;;;;8.05;75.01;100250.53;7358369;19;20027;-58
2023/01/06 08:45:40;;;;;;;0.00;0.00;;;;;;;8.02;74.50;100251.47;7357111;19;19919;-58
2023/01/06 08:48:06;;;;;;;0.10;0.10;;;;;;;8.00;74.41;100249.75;7359906;19;20018;-57
2023/01/06 08:50:32;;;;;;;0.10;0.10;;;;;;;7.98;74.57;100251.53;7360573;19;20026;-58
2023/01/06 08:52:57;;;;;;;0.00;0.00;;;;;;;7.96;74.52;100254.19;7350334;19;20540;-58
2023/01/06 08:55:22;;;;;;;0.08;0.08;;;;;;;7.93;74.53;100259.44;7357214;19;20010;-58
2023/01/06 08:57:48;;;;;;;0.00;0.00;;;;;;;7.90;74.69;100259.47;7359300;19;20466;-58
2023/01/06 09:00:14;;;;;;;0.00;0.00;;;;;;;7.90;74.89;100259.47;7358732;19;20014;-57
2023/01/06 09:02:39;;;;;;;0.00;0.00;;;;;;;7.90;74.84;100256.88;7360766;19;20014;-57
2023/01/06 09:05:05;;;;;;;0.03;0.03;;;;;;;7.90;75.18;100258.63;7354286;19;20032;-58
2023/01/06 09:07:30;;;;;;;0.00;0.00;;;;;;;7.87;75.23;100249.16;7359213;19;20073;-57
2023/01/06 09:09:56;;;;;;;0.08;0.08;;;;;;;7.88;75.10;100248.25;7360166;19;20081;-57
2023/01/06 09:12:21;;;;;;;0.00;0.00;;;;;;;7.88;75.06;100247.41;7361775;19;20708;-57
2023/01/06 09:14:47;;;;;;;0.00;0.00;;;;;;;7.88;75.22;100250.88;7355532;19;20018;-58
2023/01/06 09:17:12;;;;;;;0.00;0.00;;;;;;;7.90;75.31;100246.47;7354795;19;20014;-58
2023/01/06 09:19:37;;;;;;;0.03;0.03;;;;;;;7.92;75.42;100236.94;7361000;19;20010;-58
2023/01/06 09:22:03;;;;;;;0.10;0.10;;;;;;;7.95;75.52;100236.00;7363538;19;20028;-57
2023/01/06 09:24:29;;;;;;;0.10;0.10;;;;;;;7.95;75.27;100230.78;7367907;19;20066;-58
2023/01/06 09:26:54;;;;;;;0.00;0.00;;;;;;;7.86;75.21;100205.00;7366329;19;20491;-58
2023/01/06 09:29:20;;;;;;;0.10;0.10;;;;;;;8.02;75.61;100228.06;7364971;19;20049;-58
2023/01/06 09:31:45;;;;;;;0.10;0.10;;;;;;;8.06;75.66;100221.91;7364032;19;20082;-57
2023/01/06 09:34:11;;;;;;;0.00;0.00;;;;;;;8.09;75.46;100212.31;7367668;19;20010;-56
2023/01/06 09:36:36;;;;;;;0.10;0.10;;;;;;;8.06;75.68;100198.50;7365656;19;20018;-58
2023/01/06 09:39:02;;;;;;;0.05;0.05;;;;;;;8.21;75.90;100206.88;7366767;19;20010;-58
2023/01/06 09:41:39;;;;;;;0.03;0.03;;;;;;;8.26;75.79;100205.03;7364656;19;20006;-58
2023/01/06 09:44:18;;;;;;;0.00;0.00;;;;;;;8.32;76.23;100199.72;7366518;19;20085;-58
2023/01/06 09:46:47;;;;;;;0.00;0.00;;;;;;;8.41;75.85;100209.06;7363347;19;20747;-58
2023/01/06 09:49:24;;;;;;;0.00;0.00;;;;;;;8.46;75.54;100210.69;7363313;19;20117;-58
2023/01/06 09:51:55;;;;;;;0.00;0.00;;;;;;;8.55;75.55;100213.09;7366028;19;20078;-57
2023/01/06 09:54:46;;;;;;;0.10;0.10;;;;;;;8.60;75.79;100207.78;7365014;19;20014;-58
2023/01/06 09:57:19;;;;;;;0.00;0.00;;;;;;;8.67;75.57;100205.88;7261015;19;2004399;-57
2023/01/06 10:00:18;;;;;;;0.03;0.03;;;;;;;8.75;75.86;100193.56;7367055;19;20570;-57
2023/01/06 10:02:44;;;;;;;0.10;0.10;;;;;;;8.80;75.62;100189.09;7260723;19;2004243;-57
2023/01/06 10:05:44;;;;;;;0.10;0.10;;;;;;;8.85;75.60;100174.22;7362691;19;20014;-57
2023/01/06 10:08:24;;;;;;;0.10;0.10;;;;;;;8.90;75.47;100177.59;7262285;19;2004177;-56
2023/01/06 10:11:17;;;;;;;0.10;0.10;;;;;;;8.98;75.26;100174.81;7366696;19;20480;-57
2023/01/06 10:14:00;;;;;;;0.00;0.00;;;;;;;9.01;75.33;100175.56;7263284;19;2004494;-58
2023/01/06 10:16:38;;;;;;;0.00;0.00;;;;;;;9.04;74.78;100180.72;7362822;19;20086;-58
2023/01/06 10:19:16;;;;;;;0.10;0.10;;;;;;;9.09;74.86;100181.44;7364705;19;20796;-58
2023/01/06 10:22:13;;;;;;;0.00;0.00;;;;;;;9.15;75.17;100176.97;7363434;19;20352;-57
2023/01/06 10:24:57;;;;;;;0.00;0.00;;;;;;;9.17;74.75;100180.38;7257433;19;2004380;-58
2023/01/06 10:28:08;;;;;;;0.03;0.03;;;;;;;9.18;74.76;100182.97;7363697;19;20031;-56
2023/01/06 10:30:39;;;;;;;0.10;0.10;;;;;;;9.14;74.70;100170.06;7261928;19;2004148;-58
2023/01/06 10:33:05;;;;;;;0.00;0.00;;;;;;;9.20;74.95;100170.75;7360595;19;20056;-57
2023/01/06 10:35:31;;;;;;;0.10;0.10;;;;;;;9.22;74.66;100174.16;7363336;19;20373;-56
2023/01/06 10:38:03;;;;;;;0.00;0.00;;;;;;;9.27;74.69;100161.03;7364697;19;20078;-55
2023/01/06 10:40:29;;;;;;;0.10;0.10;;;;;;;9.29;74.83;100160.09;7363778;19;20463;-57
2023/01/06 10:43:02;;;;;;;0.00;0.00;;;;;;;9.30;74.69;100159.19;7366168;19;20021;-57
2023/01/06 10:45:47;;;;;;;0.10;0.10;;;;;;;9.40;75.07;100167.63;7366155;19;20006;-58
2023/01/06 10:48:27;;;;;;;0.00;0.00;;;;;;;9.40;74.88;100159.81;7362006;19;20018;-57
2023/01/06 10:50:52;;;;;;;0.00;0.00;;;;;;;9.44;74.89;100158.00;7363362;19;20014;-57
2023/01/06 10:53:18;;;;;;;0.00;0.00;;;;;;;9.45;74.60;100149.28;7365220;19;20015;-58
2023/01/06 10:55:56;;;;;;;0.10;0.10;;;;;;;9.53;74.58;100152.50;7364218;19;20029;-58
2023/01/06 10:58:54;;;;;;;0.05;0.05;;;;;;;9.61;75.00;100140.97;7364534;19;20011;-57
2023/01/06 11:01:25;;;;;;;0.00;0.00;;;;;;;9.66;74.75;100159.09;7260668;19;2004175;-57
2023/01/06 11:04:05;;;;;;;0.00;0.00;;;;;;;9.73;74.35;100159.78;7361827;19;20662;-58
2023/01/06 11:06:31;;;;;;;0.00;0.00;;;;;;;9.75;74.58;100158.00;7363717;19;20034;-58
2023/01/06 11:08:57;;;;;;;0.10;0.10;;;;;;;9.76;74.18;100147.53;7363501;19;21033;-56
2023/01/06 11:11:23;;;;;;;0.00;0.00;;;;;;;9.83;74.28;100145.59;7363204;19;20014;-58
2023/01/06 11:13:52;;;;;;;0.10;0.10;;;;;;;9.87;74.00;100158.50;7363265;19;20018;-56
2023/01/06 11:16:20;;;;;;;0.00;0.00;;;;;;;9.92;73.67;100155.75;7364819;19;20006;-58
2023/01/06 11:18:55;;;;;;;0.10;0.10;;;;;;;9.99;73.84;100152.09;7363187;19;20034;-58
2023/01/06 11:21:21;;;;;;;0.10;0.10;;;;;;;10.02;74.12;100152.00;7363329;19;20010;-56
2023/01/06 11:23:47;;;;;;;0.00;0.00;;;;;;;10.07;73.97;100150.09;7359631;19;20021;-58
2023/01/06 11:26:16;;;;;;;0.00;0.00;;;;;;;10.14;74.04;100166.44;7364824;19;20014;-57
2023/01/06 11:28:44;;;;;;;0.10;0.10;;;;;;;10.17;73.52;100149.84;7362816;19;20993;-58
2023/01/06 11:31:13;;;;;;;0.00;0.00;;;;;;;10.23;73.08;100144.44;7363981;19;20022;-57
2023/01/06 11:34:02;;;;;;;0.00;0.00;;;;;;;10.30;73.46;100132.94;7362200;19;20523;-56
2023/01/06 11:36:30;;;;;;;0.08;0.08;;;;;;;10.31;72.92;100132.03;7259612;19;2004533;-57
2023/01/06 11:39:20;;;;;;;0.00;0.00;;;;;;;10.42;73.55;100119.50;7362081;19;20466;-57
2023/01/06 11:41:48;;;;;;;0.05;0.05;;;;;;;10.48;72.52;100118.47;7363752;19;20018;-57
2023/01/06 11:44:37;;;;;;;0.00;0.00;;;;;;;10.60;73.21;100113.72;7358472;19;20021;-57
2023/01/06 11:47:15;;;;;;;0.00;0.00;;;;;;;10.64;72.35;100107.50;7361026;19;20007;-58
2023/01/06 11:49:56;;;;;;;0.00;0.00;;;;;;;10.65;72.44;100085.69;7361380;19;20026;-57